Time;durP1;ratioP1;P1;durP2;ratioP2;P2;SDS_P1;SDS_P2;PMS_P1;PMS_P2;Temp;Humidity;BMP_temperature;BMP_pressure;BME280_temperature;BME280_humidity;BME280_pressure;Samples;Min_cycle;Max_cycle;Signal;HPM_P1;HPM_P2
2021/03/22 00:00:32;;;;;;;46.78;25.08;;;;;;;;;;5013804;28;20026;-48
2021/03/22 00:02:59;;;;;;;41.80;21.45;;;;;;;;;;5013576;28;20030;-48
2021/03/22 00:05:25;;;;;;;39.70;21.77;;;;;;;;;;5013771;28;20030;-48
2021/03/22 00:07:52;;;;;;;39.10;21.42;;;;;;;;;;5013519;28;20038;-48
2021/03/22 00:10:19;;;;;;;39.80;20.65;;;;;;;;;;5013070;28;20386;-47
2021/03/22 00:12:52;;;;;;;45.05;23.52;;;;;;;;;;5013327;28;20041;-48
2021/03/22 00:15:19;;;;;;;49.22;25.73;;;;;;;;;;5013376;28;20030;-48
2021/03/22 00:17:45;;;;;;;42.88;21.88;;;;;;;;;;5013457;28;20045;-48
2021/03/22 00:20:12;;;;;;;33.10;18.05;;;;;;;;;;5013454;28;20060;-47
2021/03/22 00:22:40;;;;;;;33.55;19.65;;;;;;;;;;5013303;28;20030;-48
2021/03/22 00:25:07;;;;;;;34.20;16.98;;;;;;;;;;5013251;28;20022;-48
2021/03/22 00:27:35;;;;;;;46.58;25.65;;;;;;;;;;5012741;28;20401;-47
2021/03/22 00:30:02;;;;;;;43.58;24.05;;;;;;;;;;5013390;28;20050;-46
2021/03/22 00:32:28;;;;;;;36.72;20.88;;;;;;;;;;5013366;28;20437;-47
2021/03/22 00:34:54;;;;;;;35.33;19.00;;;;;;;;;;5013502;28;20030;-45
2021/03/22 00:37:23;;;;;;;35.38;19.08;;;;;;;;;;5013155;28;20030;-46
2021/03/22 00:39:49;;;;;;;33.55;18.75;;;;;;;;;;5013198;28;20030;-46
2021/03/22 00:42:15;;;;;;;32.55;18.98;;;;;;;;;;5013106;28;20037;-47
2021/03/22 00:44:45;;;;;;;34.33;18.95;;;;;;;;;;5013241;28;20033;-47
2021/03/22 00:47:11;;;;;;;33.75;19.13;;;;;;;;;;5013181;28;20409;-47
2021/03/22 00:49:37;;;;;;;37.72;20.05;;;;;;;;;;5013240;28;20026;-47
2021/03/22 00:52:07;;;;;;;36.20;21.10;;;;;;;;;;5013254;28;20030;-47
2021/03/22 00:54:33;;;;;;;37.00;18.75;;;;;;;;;;5013141;28;20072;-48
2021/03/22 00:56:59;;;;;;;35.80;18.52;;;;;;;;;;5013119;28;20053;-47
2021/03/22 00:59:25;;;;;;;40.65;21.70;;;;;;;;;;5012799;28;20026;-47
2021/03/22 01:01:51;;;;;;;32.22;17.52;;;;;;;;;;5013044;28;20430;-47
2021/03/22 01:04:17;;;;;;;36.78;20.90;;;;;;;;;;5016448;28;20072;-46
2021/03/22 01:06:43;;;;;;;26.58;15.80;;;;;;;;;;5016482;28;20026;-47
2021/03/22 01:09:09;;;;;;;25.90;15.70;;;;;;;;;;5016535;28;20439;-47
2021/03/22 01:11:35;;;;;;;33.15;18.00;;;;;;;;;;5016589;28;20042;-47
2021/03/22 01:14:01;;;;;;;32.63;18.27;;;;;;;;;;5016979;28;20475;-47
2021/03/22 01:16:32;;;;;;;31.02;18.42;;;;;;;;;;5016430;28;20029;-48
2021/03/22 01:18:58;;;;;;;37.22;19.17;;;;;;;;;;5016531;28;20026;-47
2021/03/22 01:21:34;;;;;;;34.05;19.02;;;;;;;;;;5016338;28;20037;-48
2021/03/22 01:24:02;;;;;;;28.73;18.00;;;;;;;;;;5016298;28;20036;-47
2021/03/22 01:26:30;;;;;;;60.72;30.10;;;;;;;;;;5016069;28;20040;-47
2021/03/22 01:28:56;;;;;;;34.33;18.40;;;;;;;;;;5015850;28;20470;-48
2021/03/22 01:31:23;;;;;;;29.85;17.83;;;;;;;;;;5016099;28;20029;-49
2021/03/22 01:33:51;;;;;;;31.55;17.33;;;;;;;;;;5013496;28;20022;-48
2021/03/22 01:36:21;;;;;;;30.88;16.73;;;;;;;;;;5013430;28;20022;-48
2021/03/22 01:38:47;;;;;;;42.50;22.52;;;;;;;;;;5016062;28;20029;-48
2021/03/22 01:41:26;;;;;;;40.45;22.80;;;;;;;;;;5015721;28;20053;-47
2021/03/22 01:44:14;;;;;;;41.00;20.67;;;;;;;;;;5016018;28;20034;-48
2021/03/22 01:46:42;;;;;;;29.23;17.05;;;;;;;;;;5014567;28;20591;-47
2021/03/22 01:49:08;;;;;;;32.63;18.80;;;;;;;;;;5013016;28;20076;-47
2021/03/22 01:51:36;;;;;;;25.70;15.77;;;;;;;;;;5015666;28;20033;-47
2021/03/22 01:54:02;;;;;;;30.25;18.15;;;;;;;;;;5015945;28;20471;-48
2021/03/22 01:56:31;;;;;;;38.38;20.10;;;;;;;;;;5015577;28;20108;-48
2021/03/22 01:59:00;;;;;;;72.40;35.85;;;;;;;;;;5015799;28;20132;-47
2021/03/22 02:01:28;;;;;;;41.53;21.67;;;;;;;;;;5015848;28;20498;-48
2021/03/22 02:03:54;;;;;;;39.47;21.13;;;;;;;;;;5015617;28;20426;-48
2021/03/22 02:06:21;;;;;;;48.22;26.00;;;;;;;;;;5015339;28;20018;-48
2021/03/22 02:08:50;;;;;;;67.22;34.22;;;;;;;;;;5015605;28;20026;-47
2021/03/22 02:11:18;;;;;;;106.22;51.22;;;;;;;;;;5015211;28;20049;-48
2021/03/22 02:13:45;;;;;;;39.20;22.02;;;;;;;;;;5015126;28;20037;-48
2021/03/22 02:16:18;;;;;;;49.13;25.98;;;;;;;;;;5015248;28;20033;-48
2021/03/22 02:18:50;;;;;;;68.85;34.80;;;;;;;;;;5014701;28;20022;-47
2021/03/22 02:21:25;;;;;;;61.35;31.30;;;;;;;;;;5015407;28;20446;-47
2021/03/22 02:24:10;;;;;;;38.10;19.95;;;;;;;;;;5015185;28;20168;-48
2021/03/22 02:26:42;;;;;;;44.83;23.08;;;;;;;;;;5015100;28;20034;-47
2021/03/22 02:29:26;;;;;;;35.60;20.42;;;;;;;;;;5015042;28;20034;-48
2021/03/22 02:31:52;;;;;;;48.22;23.92;;;;;;;;;;5015096;28;20125;-47
2021/03/22 02:34:22;;;;;;;52.97;27.50;;;;;;;;;;5015013;28;20022;-47
2021/03/22 02:37:07;;;;;;;105.82;50.72;;;;;;;;;;5014942;28;20030;-47
2021/03/22 02:39:38;;;;;;;57.80;29.33;;;;;;;;;;5014970;28;20460;-48
2021/03/22 02:42:07;;;;;;;113.50;57.10;;;;;;;;;;5014811;28;20065;-48
2021/03/22 02:44:37;;;;;;;83.47;41.85;;;;;;;;;;5014847;28;20088;-48
2021/03/22 02:47:05;;;;;;;69.15;35.63;;;;;;;;;;5014850;28;20124;-48
2021/03/22 02:49:35;;;;;;;46.13;26.88;;;;;;;;;;5014617;28;20065;-46
2021/03/22 02:52:01;;;;;;;65.20;32.83;;;;;;;;;;5014912;28;20040;-47
2021/03/22 02:54:39;;;;;;;49.17;26.15;;;;;;;;;;5014677;28;20114;-47
2021/03/22 02:57:11;;;;;;;58.75;29.35;;;;;;;;;;5014634;28;20029;-46
2021/03/22 02:59:40;;;;;;;53.30;28.05;;;;;;;;;;5014653;28;20030;-46
2021/03/22 03:02:07;;;;;;;48.45;26.08;;;;;;;;;;5014615;28;20021;-47
2021/03/22 03:04:37;;;;;;;40.17;21.92;;;;;;;;;;5014452;28;20018;-47
2021/03/22 03:07:06;;;;;;;33.92;17.98;;;;;;;;;;5014340;28;20065;-46
2021/03/22 03:09:36;;;;;;;36.80;21.05;;;;;;;;;;5014587;28;20065;-47
2021/03/22 03:12:18;;;;;;;25.77;16.15;;;;;;;;;;5013994;28;20061;-47
2021/03/22 03:14:45;;;;;;;31.38;17.70;;;;;;;;;;5014453;28;20022;-47
2021/03/22 03:17:12;;;;;;;33.38;19.30;;;;;;;;;;5014491;28;20049;-46
2021/03/22 03:19:38;;;;;;;37.28;20.63;;;;;;;;;;5014102;28;20032;-47
2021/03/22 03:22:04;;;;;;;36.90;18.83;;;;;;;;;;5014196;28;20030;-47
2021/03/22 03:24:31;;;;;;;29.00;17.63;;;;;;;;;;5014025;28;20096;-47
2021/03/22 03:26:57;;;;;;;40.63;21.63;;;;;;;;;;5013785;28;20072;-47
2021/03/22 03:29:25;;;;;;;34.22;17.88;;;;;;;;;;5014377;28;20385;-47
2021/03/22 03:31:51;;;;;;;31.88;18.25;;;;;;;;;;5014052;28;20022;-47
2021/03/22 03:34:20;;;;;;;33.58;17.80;;;;;;;;;;5014031;28;20109;-47
2021/03/22 03:36:46;;;;;;;29.77;16.17;;;;;;;;;;5014227;28;20146;-47
2021/03/22 03:39:12;;;;;;;31.23;17.48;;;;;;;;;;5014101;28;20018;-47
2021/03/22 03:41:39;;;;;;;30.40;16.42;;;;;;;;;;5013764;28;20030;-52
2021/03/22 03:44:07;;;;;;;30.60;17.42;;;;;;;;;;5014032;28;20026;-47
2021/03/22 03:46:33;;;;;;;41.70;22.00;;;;;;;;;;5013783;28;20025;-47
2021/03/22 03:48:59;;;;;;;31.33;16.33;;;;;;;;;;5013840;28;20026;-47
2021/03/22 03:51:25;;;;;;;34.70;16.33;;;;;;;;;;5013631;28;20045;-47
2021/03/22 03:53:51;;;;;;;31.17;16.90;;;;;;;;;;5013797;28;20433;-47
2021/03/22 03:56:17;;;;;;;25.13;15.60;;;;;;;;;;5013649;28;20022;-47
2021/03/22 03:58:46;;;;;;;33.70;17.27;;;;;;;;;;5013647;28;20104;-47
2021/03/22 04:01:12;;;;;;;29.05;16.40;;;;;;;;;;5013669;28;20173;-47
2021/03/22 04:03:39;;;;;;;27.83;15.18;;;;;;;;;;5013648;28;20049;-47
2021/03/22 04:06:28;;;;;;;28.02;17.02;;;;;;;;;;5013570;28;20033;-46
2021/03/22 04:08:55;;;;;;;42.97;19.73;;;;;;;;;;4972699;28;20057;-47
2021/03/22 04:11:26;;;;;;;38.08;19.08;;;;;;;;;;4972159;28;20035;-47
2021/03/22 04:13:52;;;;;;;30.38;17.83;;;;;;;;;;4972687;28;20039;-47
2021/03/22 04:16:19;;;;;;;30.45;16.38;;;;;;;;;;4972422;28;20030;-46
2021/03/22 04:18:45;;;;;;;29.23;16.92;;;;;;;;;;4972349;28;20144;-47
2021/03/22 04:21:13;;;;;;;31.33;16.30;;;;;;;;;;4972468;28;20035;-47
2021/03/22 04:23:41;;;;;;;24.88;16.05;;;;;;;;;;4972290;28;20114;-47
2021/03/22 04:26:07;;;;;;;27.80;15.15;;;;;;;;;;4972266;28;20031;-47
2021/03/22 04:28:33;;;;;;;21.65;14.32;;;;;;;;;;4972329;28;20042;-47
2021/03/22 04:31:00;;;;;;;22.73;14.98;;;;;;;;;;4972251;28;20126;-47
2021/03/22 04:33:26;;;;;;;28.45;16.63;;;;;;;;;;4972289;28;20042;-47
2021/03/22 04:35:53;;;;;;;28.25;14.82;;;;;;;;;;4972278;28;20159;-47
2021/03/22 04:38:20;;;;;;;26.05;15.48;;;;;;;;;;4976292;28;20038;-47
2021/03/22 04:40:46;;;;;;;23.20;13.95;;;;;;;;;;4975830;28;20557;-47
2021/03/22 04:43:12;;;;;;;22.02;14.85;;;;;;;;;;4976279;28;20027;-47
2021/03/22 04:45:38;;;;;;;25.88;15.05;;;;;;;;;;4992566;28;20056;-47
2021/03/22 04:48:05;;;;;;;23.13;14.75;;;;;;;;;;5017011;28;20034;-47
2021/03/22 04:50:31;;;;;;;27.38;15.32;;;;;;;;;;5016966;28;20018;-47
2021/03/22 04:52:57;;;;;;;23.42;14.77;;;;;;;;;;5016833;28;20028;-47
2021/03/22 04:55:24;;;;;;;26.30;16.02;;;;;;;;;;5016931;28;20026;-47
2021/03/22 04:57:51;;;;;;;28.25;16.60;;;;;;;;;;5016935;28;20022;-47
2021/03/22 05:00:40;;;;;;;37.38;18.90;;;;;;;;;;5017028;28;20029;-47
2021/03/22 05:03:10;;;;;;;38.20;20.95;;;;;;;;;;5016889;28;20359;-48
2021/03/22 05:05:39;;;;;;;47.30;23.90;;;;;;;;;;5016914;28;20113;-47
2021/03/22 05:08:06;;;;;;;44.97;24.35;;;;;;;;;;5016614;28;20057;-46
2021/03/22 05:10:36;;;;;;;52.30;27.02;;;;;;;;;;5016457;28;20112;-47
2021/03/22 05:13:03;;;;;;;45.33;24.15;;;;;;;;;;5016586;28;20060;-46
2021/03/22 05:15:29;;;;;;;43.00;23.95;;;;;;;;;;5015250;28;20080;-47
2021/03/22 05:17:56;;;;;;;39.75;22.88;;;;;;;;;;5016915;28;20057;-47
2021/03/22 05:20:42;;;;;;;38.25;22.17;;;;;;;;;;5016619;28;20042;-47
2021/03/22 05:23:10;;;;;;;43.85;25.80;;;;;;;;;;5016198;28;20064;-46
2021/03/22 05:25:38;;;;;;;38.58;23.05;;;;;;;;;;5016208;28;20540;-46
2021/03/22 05:28:05;;;;;;;35.42;22.23;;;;;;;;;;5016447;28;20041;-46
2021/03/22 05:30:33;;;;;;;47.45;26.55;;;;;;;;;;5016369;28;20368;-47
2021/03/22 05:33:00;;;;;;;37.13;22.63;;;;;;;;;;5016293;28;20160;-47
2021/03/22 05:35:28;;;;;;;45.50;21.90;;;;;;;;;;5016272;28;20585;-47
2021/03/22 05:37:55;;;;;;;31.70;19.02;;;;;;;;;;5016251;28;20026;-47
2021/03/22 05:40:34;;;;;;;34.65;21.05;;;;;;;;;;5015975;28;20501;-47
2021/03/22 05:43:00;;;;;;;40.53;22.42;;;;;;;;;;5016097;28;20113;-48
2021/03/22 05:45:32;;;;;;;33.38;19.48;;;;;;;;;;5015957;28;20022;-47
2021/03/22 05:47:58;;;;;;;;;;;;;;;;;;5015751;28;20474;-47
2021/03/22 05:50:31;;;;;;;49.58;26.55;;;;;;;;;;5015887;28;19905;-47
2021/03/22 05:52:57;;;;;;;45.05;25.77;;;;;;;;;;5014602;28;20025;-46
2021/03/22 05:55:34;;;;;;;46.05;26.42;;;;;;;;;;5016040;28;20041;-47
2021/03/22 05:58:09;;;;;;;49.88;27.15;;;;;;;;;;5015722;28;20061;-47
2021/03/22 06:00:35;;;;;;;48.50;30.05;;;;;;;;;;5015562;28;20030;-46
2021/03/22 06:03:04;;;;;;;49.20;29.30;;;;;;;;;;5015668;28;20030;-47
2021/03/22 06:05:36;;;;;;;62.88;32.42;;;;;;;;;;5015668;28;20030;-48
2021/03/22 06:08:04;;;;;;;;;;;;;;;;;;5015883;28;20041;-47
2021/03/22 06:10:39;;;;;;;45.75;25.85;;;;;;;;;;5015221;28;19929;-48
2021/03/22 06:13:06;;;;;;;56.03;31.75;;;;;;;;;;5015711;28;20026;-46
2021/03/22 06:15:32;;;;;;;53.13;25.65;;;;;;;;;;5015567;28;20470;-46
2021/03/22 06:18:17;;;;;;;68.15;34.63;;;;;;;;;;5015283;28;20477;-46
2021/03/22 06:20:43;;;;;;;47.28;24.15;;;;;;;;;;5015311;28;20044;-46
2021/03/22 06:23:09;;;;;;;76.22;38.25;;;;;;;;;;5015231;28;20109;-46
2021/03/22 06:25:36;;;;;;;58.78;33.05;;;;;;;;;;5015263;28;20037;-50
2021/03/22 06:28:16;;;;;;;58.45;29.83;;;;;;;;;;5014996;28;20038;-47
2021/03/22 06:31:05;;;;;;;55.88;29.95;;;;;;;;;;5015074;28;20030;-47
2021/03/22 06:33:40;;;;;;;49.90;27.08;;;;;;;;;;5009717;28;20478;-48
2021/03/22 06:36:06;;;;;;;55.78;28.20;;;;;;;;;;5014966;28;20418;-48
2021/03/22 06:38:33;;;;;;;49.13;26.10;;;;;;;;;;5014946;28;20028;-48
2021/03/22 06:40:59;;;;;;;50.22;26.27;;;;;;;;;;5014752;28;20448;-48
2021/03/22 06:43:26;;;;;;;46.92;24.00;;;;;;;;;;5014767;28;20026;-49
2021/03/22 06:46:08;;;;;;;53.47;28.00;;;;;;;;;;5014995;28;20069;-49
2021/03/22 06:48:35;;;;;;;41.08;22.50;;;;;;;;;;5014612;28;20045;-49
2021/03/22 06:51:01;;;;;;;48.67;25.35;;;;;;;;;;5015023;28;20033;-49
2021/03/22 06:53:38;;;;;;;47.10;26.30;;;;;;;;;;5014790;28;20030;-49
2021/03/22 06:56:16;;;;;;;42.50;23.80;;;;;;;;;;5014529;28;20034;-49
2021/03/22 06:58:43;;;;;;;46.88;25.08;;;;;;;;;;5014560;28;20520;-49
2021/03/22 07:01:17;;;;;;;45.63;25.40;;;;;;;;;;5013542;28;20474;-48
2021/03/22 07:03:43;;;;;;;49.50;28.05;;;;;;;;;;5014612;28;20018;-49
2021/03/22 07:06:20;;;;;;;53.83;29.90;;;;;;;;;;5014450;28;20383;-48
2021/03/22 07:08:46;;;;;;;46.28;26.95;;;;;;;;;;5014176;28;20037;-48
2021/03/22 07:11:26;;;;;;;44.55;26.98;;;;;;;;;;5013955;28;20045;-49
2021/03/22 07:14:01;;;;;;;51.88;29.08;;;;;;;;;;5014437;28;20108;-48
2021/03/22 07:16:29;;;;;;;50.38;28.45;;;;;;;;;;5014376;28;20204;-49
2021/03/22 07:19:04;;;;;;;50.03;27.38;;;;;;;;;;5014165;28;20037;-49
2021/03/22 07:21:31;;;;;;;75.55;33.55;;;;;;;;;;5014186;28;20505;-49
2021/03/22 07:24:08;;;;;;;78.55;34.25;;;;;;;;;;5014299;28;20022;-49
2021/03/22 07:26:49;;;;;;;76.18;31.88;;;;;;;;;;5014090;28;20030;-48
2021/03/22 07:29:27;;;;;;;49.70;28.58;;;;;;;;;;5014005;28;20040;-47
2021/03/22 07:31:53;;;;;;;43.00;27.13;;;;;;;;;;5013879;28;20018;-48
2021/03/22 07:34:25;;;;;;;51.15;28.73;;;;;;;;;;5013996;28;20026;-48
2021/03/22 07:36:51;;;;;;;;;;;;;;;;;;5014343;28;20022;-49
2021/03/22 07:39:34;;;;;;;48.35;28.27;;;;;;;;;;5013905;28;19912;-49
2021/03/22 07:42:12;;;;;;;43.03;27.30;;;;;;;;;;5013598;28;20034;-48
2021/03/22 07:44:54;;;;;;;48.42;29.23;;;;;;;;;;5013708;28;20040;-48
2021/03/22 07:47:20;;;;;;;;;;;;;;;;;;5014146;28;20029;-48
2021/03/22 07:50:04;;;;;;;53.33;28.88;;;;;;;;;;5013983;28;20277;-48
2021/03/22 07:52:32;;;;;;;48.25;27.13;;;;;;;;;;5013532;28;20484;-48
2021/03/22 07:55:11;;;;;;;45.05;26.55;;;;;;;;;;5013747;28;20030;-48
2021/03/22 07:57:39;;;;;;;48.22;29.65;;;;;;;;;;5013909;28;20032;-48
2021/03/22 08:00:24;;;;;;;46.55;29.70;;;;;;;;;;5013758;28;20113;-48
2021/03/22 08:03:10;;;;;;;50.65;31.27;;;;;;;;;;5013627;28;20037;-48
2021/03/22 08:05:42;;;;;;;52.90;33.05;;;;;;;;;;5013378;28;20026;-48
2021/03/22 08:08:27;;;;;;;55.47;32.60;;;;;;;;;;5013470;28;20038;-48
2021/03/22 08:11:07;;;;;;;55.78;32.50;;;;;;;;;;5012835;28;20037;-48
2021/03/22 08:13:43;;;;;;;53.13;32.03;;;;;;;;;;5013285;28;20034;-48
2021/03/22 08:16:11;;;;;;;53.72;33.13;;;;;;;;;;5013731;28;20087;-48
2021/03/22 08:18:46;;;;;;;43.15;29.52;;;;;;;;;;5013883;28;20041;-48
2021/03/22 08:21:31;;;;;;;40.05;27.98;;;;;;;;;;5013474;28;20105;-48
2021/03/22 08:24:06;;;;;;;43.35;29.00;;;;;;;;;;5013417;28;20555;-48
2021/03/22 08:26:35;;;;;;;42.25;25.95;;;;;;;;;;5013077;28;20033;-48
2021/03/22 08:29:01;;;;;;;44.70;27.15;;;;;;;;;;5013252;28;20390;-48
2021/03/22 08:31:34;;;;;;;42.72;26.92;;;;;;;;;;5013277;28;20033;-48
2021/03/22 08:34:23;;;;;;;38.72;25.70;;;;;;;;;;5013336;28;20022;-49
2021/03/22 08:36:52;;;;;;;38.95;25.38;;;;;;;;;;5007652;28;20101;-48
2021/03/22 08:39:34;;;;;;;35.72;22.88;;;;;;;;;;5013121;28;20080;-48
2021/03/22 08:42:03;;;;;;;35.85;23.42;;;;;;;;;;5012863;28;20034;-50
2021/03/22 08:44:41;;;;;;;38.55;24.08;;;;;;;;;;5013148;28;20122;-48
2021/03/22 08:47:30;;;;;;;34.42;23.13;;;;;;;;;;5013154;28;20030;-49
2021/03/22 08:49:58;;;;;;;39.65;22.67;;;;;;;;;;4972002;28;20047;-48
2021/03/22 08:52:30;;;;;;;29.73;22.00;;;;;;;;;;4971896;28;20038;-49
2021/03/22 08:55:25;;;;;;;39.58;25.85;;;;;;;;;;4955848;28;20122;-49
2021/03/22 08:57:54;;;;;;;29.27;19.60;;;;;;;;;;4895527;29;20478;-50
2021/03/22 09:00:25;;;;;;;25.77;18.63;;;;;;;;;;4895656;29;20120;-48
2021/03/22 09:02:58;;;;;;;26.58;18.02;;;;;;;;;;4895739;29;20127;-49
2021/03/22 09:05:28;;;;;;;32.40;21.10;;;;;;;;;;4895630;29;20068;-49
2021/03/22 09:08:14;;;;;;;31.88;22.75;;;;;;;;;;4895458;29;20538;-48
2021/03/22 09:10:41;;;;;;;38.10;23.63;;;;;;;;;;4895133;29;20052;-47
2021/03/22 09:13:27;;;;;;;29.42;21.58;;;;;;;;;;4895291;29;20504;-49
2021/03/22 09:16:04;;;;;;;25.75;19.17;;;;;;;;;;4895313;29;20037;-49
2021/03/22 09:18:30;;;;;;;27.20;18.88;;;;;;;;;;4895336;29;20061;-49
2021/03/22 09:20:59;;;;;;;27.90;18.75;;;;;;;;;;4895414;29;20033;-48
2021/03/22 09:23:31;;;;;;;30.25;20.25;;;;;;;;;;4896461;29;20125;-48
2021/03/22 09:26:00;;;;;;;28.23;20.23;;;;;;;;;;4901539;29;20407;-48
2021/03/22 09:28:29;;;;;;;33.63;19.65;;;;;;;;;;4936503;29;20052;-50
2021/03/22 09:30:58;;;;;;;32.20;22.83;;;;;;;;;;4936847;29;20031;-49
2021/03/22 09:33:42;;;;;;;34.90;23.45;;;;;;;;;;4945288;28;20042;-49
2021/03/22 09:36:10;;;;;;;36.85;22.08;;;;;;;;;;5016296;28;20414;-49
2021/03/22 09:38:45;;;;;;;38.63;24.98;;;;;;;;;;5016054;28;20026;-49
2021/03/22 09:41:12;;;;;;;33.35;21.15;;;;;;;;;;5015981;28;20029;-48
2021/03/22 09:43:40;;;;;;;32.70;22.08;;;;;;;;;;5015841;28;20490;-49
2021/03/22 09:46:27;;;;;;;26.73;19.40;;;;;;;;;;5015997;28;20022;-49
2021/03/22 09:49:09;;;;;;;35.90;23.13;;;;;;;;;;5015649;28;20042;-48
2021/03/22 09:51:41;;;;;;;30.45;20.50;;;;;;;;;;5016067;28;20533;-48
2021/03/22 09:54:18;;;;;;;32.38;21.17;;;;;;;;;;5015808;28;20161;-49
2021/03/22 09:57:02;;;;;;;30.75;21.77;;;;;;;;;;5015600;28;20026;-48
2021/03/22 09:59:32;;;;;;;30.50;20.77;;;;;;;;;;5015721;28;20477;-48
2021/03/22 10:01:59;;;;;;;35.05;21.88;;;;;;;;;;5014414;28;20482;-49
2021/03/22 10:04:31;;;;;;;33.28;21.10;;;;;;;;;;5015676;28;20026;-48
2021/03/22 10:07:16;;;;;;;32.78;21.88;;;;;;;;;;5015524;28;20032;-49
2021/03/22 10:09:54;;;;;;;31.05;21.60;;;;;;;;;;5015679;28;20414;-48
2021/03/22 10:12:41;;;;;;;29.95;21.10;;;;;;;;;;5015273;28;20157;-48
2021/03/22 10:15:14;;;;;;;38.70;24.52;;;;;;;;;;5015318;28;20375;-48
2021/03/22 10:17:47;;;;;;;32.17;20.60;;;;;;;;;;5015267;28;20034;-49
2021/03/22 10:20:35;;;;;;;35.75;23.77;;;;;;;;;;5015427;28;20053;-50
2021/03/22 10:23:03;;;;;;;29.77;20.73;;;;;;;;;;5013972;28;20073;-49
2021/03/22 10:25:33;;;;;;;29.27;21.25;;;;;;;;;;5015213;28;20482;-49
2021/03/22 10:28:04;;;;;;;31.33;21.30;;;;;;;;;;5015173;28;20119;-48
2021/03/22 10:30:30;;;;;;;29.87;20.90;;;;;;;;;;5015227;28;20034;-49
2021/03/22 10:32:58;;;;;;;28.95;19.35;;;;;;;;;;5015719;28;20038;-49
2021/03/22 10:35:27;;;;;;;30.58;19.55;;;;;;;;;;5015013;28;20030;-48
2021/03/22 10:37:55;;;;;;;30.42;20.02;;;;;;;;;;5014706;28;20049;-49
2021/03/22 10:40:21;;;;;;;45.85;27.42;;;;;;;;;;5014809;28;20474;-49
2021/03/22 10:42:48;;;;;;;65.75;36.67;;;;;;;;;;5014627;28;20033;-48
2021/03/22 10:45:17;;;;;;;57.50;28.23;;;;;;;;;;5015083;28;20034;-48
2021/03/22 10:47:43;;;;;;;38.58;21.75;;;;;;;;;;5014754;28;20096;-49
2021/03/22 10:50:30;;;;;;;50.88;26.45;;;;;;;;;;5014982;28;20061;-48
2021/03/22 10:53:16;;;;;;;40.78;25.00;;;;;;;;;;5014747;28;20525;-46
2021/03/22 10:55:47;;;;;;;38.45;21.15;;;;;;;;;;5014633;28;20069;-48
2021/03/22 10:58:19;;;;;;;41.67;22.05;;;;;;;;;;5014712;28;20068;-48
2021/03/22 11:00:46;;;;;;;38.03;21.85;;;;;;;;;;5014600;28;20030;-48
2021/03/22 11:03:19;;;;;;;35.17;21.52;;;;;;;;;;5014478;28;20053;-48
2021/03/22 11:05:46;;;;;;;41.45;24.00;;;;;;;;;;5014503;28;20026;-47
2021/03/22 11:08:31;;;;;;;36.05;20.45;;;;;;;;;;5014354;28;20037;-50
2021/03/22 11:11:05;;;;;;;46.17;26.33;;;;;;;;;;5012815;28;20125;-50
2021/03/22 11:13:35;;;;;;;52.30;27.52;;;;;;;;;;5014244;28;20033;-50
2021/03/22 11:16:01;;;;;;;51.13;28.27;;;;;;;;;;5014396;28;20022;-48
2021/03/22 11:18:29;;;;;;;46.05;25.52;;;;;;;;;;5014388;28;20107;-50
2021/03/22 11:20:57;;;;;;;45.33;25.77;;;;;;;;;;5014555;28;20106;-50
2021/03/22 11:23:27;;;;;;;56.13;30.35;;;;;;;;;;5014208;28;20025;-48
2021/03/22 11:26:24;;;;;;;47.05;24.73;;;;;;;;;;5012923;28;20378;-48
2021/03/22 11:28:50;;;;;;;39.05;22.38;;;;;;;;;;5013172;28;20050;-50
2021/03/22 11:31:20;;;;;;;43.92;24.60;;;;;;;;;;5014025;28;20096;-48
2021/03/22 11:33:58;;;;;;;44.10;25.15;;;;;;;;;;5014039;28;20613;-48
2021/03/22 11:36:50;;;;;;;58.45;32.13;;;;;;;;;;5013923;28;20033;-49
2021/03/22 11:39:23;;;;;;;62.53;35.30;;;;;;;;;;5011969;28;20065;-51
2021/03/22 11:41:55;;;;;;;83.20;43.33;;;;;;;;;;5013774;28;20026;-49
2021/03/22 11:44:26;;;;;;;44.05;25.95;;;;;;;;;;5013855;28;20034;-48
2021/03/22 11:46:54;;;;;;;38.10;23.42;;;;;;;;;;5013459;28;20100;-48
2021/03/22 11:49:36;;;;;;;52.92;30.92;;;;;;;;;;5012951;28;20042;-47
2021/03/22 11:52:05;;;;;;;41.20;25.73;;;;;;;;;;5009983;28;20026;-49
2021/03/22 11:54:46;;;;;;;43.70;25.52;;;;;;;;;;5012383;28;20021;-49
2021/03/22 11:57:16;;;;;;;44.60;26.00;;;;;;;;;;5011122;28;20120;-48
2021/03/22 11:59:47;;;;;;;49.78;28.40;;;;;;;;;;5009776;28;20021;-48
2021/03/22 12:02:13;;;;;;;44.77;25.70;;;;;;;;;;5012311;28;20429;-47
2021/03/22 12:04:40;;;;;;;43.10;24.48;;;;;;;;;;5012465;28;20017;-49
2021/03/22 12:07:08;;;;;;;42.97;23.77;;;;;;;;;;5028334;28;20073;-48
2021/03/22 12:09:35;;;;;;;53.65;26.25;;;;;;;;;;5013307;28;20045;-48
2021/03/22 12:12:02;;;;;;;40.28;23.90;;;;;;;;;;5013285;28;20504;-48
2021/03/22 12:14:28;;;;;;;35.05;19.98;;;;;;;;;;5013375;28;20033;-48
2021/03/22 12:17:05;;;;;;;35.75;21.65;;;;;;;;;;5013341;28;20022;-48
2021/03/22 12:19:36;;;;;;;37.53;20.85;;;;;;;;;;5013406;28;20079;-48
2021/03/22 12:22:02;;;;;;;32.28;19.88;;;;;;;;;;5013582;28;20026;-48
2021/03/22 12:24:28;;;;;;;30.15;17.50;;;;;;;;;;5013725;28;20029;-50
2021/03/22 12:26:54;;;;;;;29.13;17.55;;;;;;;;;;5013440;28;20026;-49
2021/03/22 12:29:20;;;;;;;30.55;19.67;;;;;;;;;;5013179;28;20513;-49
2021/03/22 12:31:48;;;;;;;34.67;19.55;;;;;;;;;;5013431;28;20144;-49
2021/03/22 12:34:32;;;;;;;28.90;17.85;;;;;;;;;;5013154;28;20363;-48
2021/03/22 12:36:58;;;;;;;38.75;19.83;;;;;;;;;;5013393;28;20022;-48
2021/03/22 12:39:37;;;;;;;29.92;18.42;;;;;;;;;;5013253;28;20101;-48
2021/03/22 12:42:05;;;;;;;32.35;20.10;;;;;;;;;;5013101;28;20029;-48
2021/03/22 12:44:32;;;;;;;38.35;20.95;;;;;;;;;;5012656;28;20045;-48
2021/03/22 12:46:58;;;;;;;39.58;24.20;;;;;;;;;;5012296;28;20028;-48
2021/03/22 12:49:24;;;;;;;53.78;27.17;;;;;;;;;;5012745;28;20482;-49
2021/03/22 12:51:53;;;;;;;84.18;37.00;;;;;;;;;;5013136;28;20026;-49
2021/03/22 12:54:20;;;;;;;40.45;21.85;;;;;;;;;;5013113;28;20030;-48
2021/03/22 12:56:46;;;;;;;48.88;26.25;;;;;;;;;;5012931;28;20025;-48
2021/03/22 12:59:38;;;;;;;44.17;22.20;;;;;;;;;;5014952;28;20033;-48
2021/03/22 13:02:13;;;;;;;31.25;19.90;;;;;;;;;;5015596;28;20092;-49
2021/03/22 13:04:39;;;;;;;47.08;22.15;;;;;;;;;;5015256;28;20500;-48
2021/03/22 13:07:07;;;;;;;35.78;17.45;;;;;;;;;;5011333;28;20033;-48
2021/03/22 13:09:34;;;;;;;39.60;22.90;;;;;;;;;;5016487;28;20038;-49
2021/03/22 13:12:00;;;;;;;55.40;28.95;;;;;;;;;;5016319;28;20056;-48
2021/03/22 13:14:26;;;;;;;38.58;21.30;;;;;;;;;;5016599;28;20037;-47
2021/03/22 13:16:54;;;;;;;46.22;23.77;;;;;;;;;;5016627;28;20022;-48
2021/03/22 13:19:20;;;;;;;57.80;24.52;;;;;;;;;;5016485;28;20462;-49
2021/03/22 13:21:47;;;;;;;44.22;24.23;;;;;;;;;;5016386;28;20466;-49
2021/03/22 13:24:17;;;;;;;48.17;25.25;;;;;;;;;;5016503;28;20056;-48
2021/03/22 13:26:43;;;;;;;53.60;28.58;;;;;;;;;;5016318;28;20028;-48
2021/03/22 13:29:12;;;;;;;45.63;23.80;;;;;;;;;;5016051;28;20125;-47
2021/03/22 13:31:38;;;;;;;43.50;25.13;;;;;;;;;;5016182;28;20465;-48
2021/03/22 13:34:05;;;;;;;46.90;26.35;;;;;;;;;;5016262;28;20083;-48
2021/03/22 13:36:31;;;;;;;45.65;24.75;;;;;;;;;;5016113;28;20363;-48
2021/03/22 13:38:57;;;;;;;35.85;18.80;;;;;;;;;;5016223;28;20029;-48
2021/03/22 13:41:24;;;;;;;36.28;19.95;;;;;;;;;;5016032;28;20037;-49
2021/03/22 13:43:50;;;;;;;55.03;29.60;;;;;;;;;;5014917;28;20413;-49
2021/03/22 13:46:16;;;;;;;45.00;23.83;;;;;;;;;;5016359;28;20041;-49
2021/03/22 13:48:42;;;;;;;38.35;20.30;;;;;;;;;;5015975;28;20061;-49
2021/03/22 13:51:12;;;;;;;51.42;26.17;;;;;;;;;;5016164;28;20018;-50
2021/03/22 13:53:38;;;;;;;44.38;21.30;;;;;;;;;;5016003;28;20022;-50
2021/03/22 13:56:04;;;;;;;41.58;21.08;;;;;;;;;;5015929;28;20080;-49
2021/03/22 13:58:31;;;;;;;41.63;22.65;;;;;;;;;;5015900;28;20022;-47
2021/03/22 14:00:57;;;;;;;49.80;23.40;;;;;;;;;;5015982;28;20018;-51
2021/03/22 14:03:26;;;;;;;30.85;15.80;;;;;;;;;;5015912;28;20026;-49
2021/03/22 14:05:54;;;;;;;38.38;18.98;;;;;;;;;;5015294;28;20060;-51
2021/03/22 14:08:21;;;;;;;33.92;15.98;;;;;;;;;;5015608;28;20121;-49
2021/03/22 14:10:47;;;;;;;34.65;14.18;;;;;;;;;;5014743;28;20060;-49
2021/03/22 14:13:14;;;;;;;29.27;15.10;;;;;;;;;;5015753;28;20030;-49
2021/03/22 14:15:42;;;;;;;25.05;14.52;;;;;;;;;;5015567;28;20021;-49
2021/03/22 14:18:10;;;;;;;24.60;14.05;;;;;;;;;;5014798;28;20068;-51
2021/03/22 14:20:36;;;;;;;25.13;13.02;;;;;;;;;;4991854;28;20036;-49
2021/03/22 14:23:03;;;;;;;20.17;10.73;;;;;;;;;;4991030;28;20127;-48
2021/03/22 14:25:29;;;;;;;21.92;12.55;;;;;;;;;;4991073;28;20052;-48
2021/03/22 14:27:56;;;;;;;19.38;11.68;;;;;;;;;;4990643;28;20175;-47
2021/03/22 14:30:23;;;;;;;22.05;11.68;;;;;;;;;;4990453;28;20136;-48
2021/03/22 14:32:49;;;;;;;20.38;10.40;;;;;;;;;;4990429;28;20385;-48
2021/03/22 14:35:15;;;;;;;39.10;20.75;;;;;;;;;;4990660;28;20030;-47
2021/03/22 14:37:42;;;;;;;35.55;18.35;;;;;;;;;;4990238;28;20029;-48